Map

Track Data

SID SEASON NUMBER BASIN SUBBASIN NAME ISO_TIME NATURE LAT LON WMO_WIND WMO_PRES WMO_AGENCY TRACK_TYPE DIST2LAND LANDFALL IFLAG USA_AGENCY USA_ATCF_ID USA_LAT USA_LON USA_RECORD USA_STATUS USA_WIND USA_PRES USA_SSHS USA_R34_NE USA_R34_SE USA_R34_SW USA_R34_NW USA_R50_NE USA_R50_SE USA_R50_SW USA_R50_NW USA_R64_NE USA_R64_SE USA_R64_SW USA_R64_NW USA_POCI USA_ROCI USA_RMW USA_EYE TOKYO_LAT TOKYO_LON TOKYO_GRADE TOKYO_WIND TOKYO_PRES TOKYO_R50_DIR TOKYO_R50_LONG TOKYO_R50_SHORT TOKYO_R30_DIR TOKYO_R30_LONG TOKYO_R30_SHORT TOKYO_LAND CMA_LAT CMA_LON CMA_CAT CMA_WIND CMA_PRES HKO_LAT HKO_LON HKO_CAT HKO_WIND HKO_PRES NEWDELHI_LAT NEWDELHI_LON NEWDELHI_GRADE NEWDELHI_WIND NEWDELHI_PRES NEWDELHI_CI NEWDELHI_DP NEWDELHI_POCI REUNION_LAT REUNION_LON REUNION_TYPE REUNION_WIND REUNION_PRES REUNION_TNUM REUNION_CI REUNION_RMW REUNION_R34_NE REUNION_R34_SE REUNION_R34_SW REUNION_R34_NW REUNION_R50_NE REUNION_R50_SE REUNION_R50_SW REUNION_R50_NW REUNION_R64_NE REUNION_R64_SE REUNION_R64_SW REUNION_R64_NW BOM_LAT BOM_LON BOM_TYPE BOM_WIND BOM_PRES BOM_TNUM BOM_CI BOM_RMW BOM_R34_NE BOM_R34_SE BOM_R34_SW BOM_R34_NW BOM_R50_NE BOM_R50_SE BOM_R50_SW BOM_R50_NW BOM_R64_NE BOM_R64_SE BOM_R64_SW BOM_R64_NW BOM_ROCI BOM_POCI BOM_EYE BOM_POS_METHOD BOM_PRES_METHOD NADI_LAT NADI_LON NADI_CAT NADI_WIND NADI_PRES WELLINGTON_LAT WELLINGTON_LON WELLINGTON_WIND WELLINGTON_PRES DS824_LAT DS824_LON DS824_STAGE DS824_WIND DS824_PRES TD9636_LAT TD9636_LON TD9636_STAGE TD9636_WIND TD9636_PRES TD9635_LAT TD9635_LON TD9635_WIND TD9635_PRES TD9635_ROCI NEUMANN_LAT NEUMANN_LON NEUMANN_CLASS NEUMANN_WIND NEUMANN_PRES MLC_LAT MLC_LON MLC_CLASS MLC_WIND MLC_PRES USA_GUST BOM_GUST BOM_GUST_PER REUNION_GUST REUNION_GUST_PER USA_SEAHGT USA_SEARAD_NE USA_SEARAD_SE USA_SEARAD_SW USA_SEARAD_NW STORM_SPEED STORM_DIR
1972080S10105 1972 25 SI WA BELINDA 1972-03-20 00:00:00 TS -10.0000 105.000 1006 bom main 329 329 O_____O__OO_O_ jtwc_sh SH251972 -10.0000 105.000 35 0 -10.0000 105.000 1006 -10.0000 105.000 TC 15 1006 -10.0000 105.000 2 35 -10.0000 105.000 TC 15 1006 9 221
1972080S10105 1972 25 SI WA BELINDA 1972-03-20 03:00:00 TS -10.3406 104.700 1004 bom main 374 374 P_____O__PP_P_ SH251972 -10.3650 104.703 32 -1 -10.3000 104.700 1004 -10.2950 104.703 TC 20 1004 -10.3534 104.688 2 -10.3650 104.703 TC 20 1004 9 222
1972080S10105 1972 25 SI WA BELINDA 1972-03-20 06:00:00 TS -10.6642 104.397 1002 bom main 430 430 O_____O__OP_O_ jtwc_sh SH251972 -10.7000 104.400 30 -1 -10.6000 104.400 1002 -10.6000 104.400 TC 25 1002 -10.6853 104.381 2 -10.7000 104.400 TC 25 1002 9 224
1972080S10105 1972 25 SI WA BELINDA 1972-03-20 09:00:00 TS -10.9549 104.092 1001 bom main 475 475 P_____O__PP_P_ SH251972 -10.9800 104.092 27 -1 -10.9000 104.100 1001 -10.9150 104.093 TC 27 1001 -10.9745 104.083 2 -10.9800 104.092 TC 27 1001 8 228
1972080S10105 1972 25 SI WA BELINDA 1972-03-20 12:00:00 TS -11.2000 103.800 1000 bom main 512 512 O_____O__OO_O_ jtwc_sh SH251972 -11.2000 103.800 25 -1 -11.2000 103.800 1000 -11.2000 103.800 TC 30 1000 -11.2000 103.800 1 -11.2000 103.800 TC 30 1000 7 232
1972080S10105 1972 25 SI WA BELINDA 1972-03-20 15:00:00 TS -11.3796 103.529 999 bom main 548 548 P_____O__PP_P_ SH251972 -11.3650 103.535 25 -1 -11.4000 103.500 999 -11.4300 103.535 TC 32 999 -11.3524 103.537 1 -11.3650 103.535 TC 32 999 6 236
1972080S10105 1972 25 SI WA BELINDA 1972-03-20 18:00:00 TS -11.5283 103.299 998 bom main 566 566 O_____O__OP_O_ jtwc_sh SH251972 -11.5000 103.300 25 -1 -11.6000 103.300 998 -11.6000 103.300 TC 35 998 -11.4699 103.297 1 -11.5000 103.300 TC 35 998 5 240
1972080S10105 1972 25 SI WA BELINDA 1972-03-20 21:00:00 TS -11.6350 103.087 997 bom main 585 585 P_____O__PP_P_ SH251972 -11.6125 103.085 22 -1 -11.7000 103.100 997 -11.6700 103.085 TC 35 997 -11.6025 103.084 1 -11.6125 103.085 TC 35 997 5 235
1972080S10105 1972 25 SI WA BELINDA 1972-03-21 00:00:00 TS -11.8000 102.900 996 bom main 614 614 O_____O__OO_O_ jtwc_sh SH251972 -11.8000 102.900 20 -1 -11.8000 102.900 996 -11.8000 102.900 TC 35 996 -11.8000 102.900 1 -11.8000 102.900 TC 35 996 6 213
1972080S10105 1972 25 SI WA BELINDA 1972-03-21 03:00:00 TS -12.1685 102.730 996 bom main 664 664 P_____O__PP_P_ SH251972 -12.1625 102.735 17 -1 -12.2000 102.700 996 -12.1550 102.735 TC 35 996 -12.1687 102.742 1 -12.1625 102.735 TC 35 996 9 200
1972080S10105 1972 25 SI WA BELINDA 1972-03-21 06:00:00 TS -12.6000 102.602 996 bom main 709 709 O_____O__OP_O_ jtwc_sh SH251972 -12.6000 102.600 15 -1 -12.6000 102.600 996 -12.6000 102.600 TC 35 996 -12.5999 102.613 1 -12.6000 102.600 TC 35 996 9 195
1972080S10105 1972 25 SI WA BELINDA 1972-03-21 09:00:00 TS -13.0289 102.495 996 bom main 754 754 P_____O__PP_P_ SH251972 -13.0375 102.492 15 -1 -13.0000 102.500 996 -13.0300 102.492 TC 37 995 -13.0312 102.502 1 -13.0375 102.492 TC 37 995 8 194
1972080S10105 1972 25 SI WA BELINDA 1972-03-21 12:00:00 TS -13.4000 102.400 995 bom main 800 800 O_____O__OO_O_ jtwc_sh SH251972 -13.4000 102.400 15 -1 -13.4000 102.400 995 -13.4000 102.400 TC 40 995 -13.4000 102.400 1 15 -13.4000 102.400 TC 40 995 6 197
1972080S10105 1972 25 SI WA BELINDA 1972-03-21 15:00:00 TS -13.6228 102.310 995 bom main 825 825 P_____O__PP_P_ SH251972 -13.5875 102.300 15 -1 -13.7000 102.300 995 -13.6450 102.300 TC 40 995 -13.6295 102.357 1 15 -13.5875 102.300 TC 40 995 4 207
1972080S10105 1972 25 SI WA BELINDA 1972-03-21 18:00:00 TS -13.7482 102.219 995 bom main 839 839 O_____O__OP_O_ jtwc_sh SH251972 -13.7000 102.200 15 -1 -13.8000 102.200 995 -13.8000 102.200 TC 40 995 -13.7892 102.312 1 15 -13.7000 102.200 TC 40 995 3 210
1972080S10105 1972 25 SI WA BELINDA 1972-03-21 21:00:00 TS -13.8819 102.155 994 bom main 860 860 P_____O__PP_P_ SH251972 -13.8574 102.152 15 -1 -13.9000 102.100 994 -13.9148 102.160 TC 40 994 -13.9043 102.211 1 15 -13.8574 102.152 TC 40 994 3 220
1972080S10105 1972 25 SI WA BELINDA 1972-03-22 00:00:00 TS -14.0000 102.000 994 bom main 879 879 O_____O__OO_O_ jtwc_sh SH251972 -14.0000 102.000 15 -1 -14.0000 102.000 994 -14.0000 102.000 TC 40 994 -14.0000 102.000 1 15 -14.0000 102.000 TC 40 994 6 248
1972080S10105 1972 25 SI WA BELINDA 1972-03-22 03:00:00 TS -14.1050 101.585 992 bom main 907 907 P_____O__PP_P_ SH251972 -14.1075 101.617 12 -1 -14.1000 101.500 992 -14.1002 101.560 TC 42 992 -14.1070 101.595 1 12 -14.1075 101.617 TC 42 992 9 258
1972080S10105 1972 25 SI WA BELINDA 1972-03-22 06:00:00 TS -14.2002 101.064 990 bom main 942 942 O_____O__OP_O_ jtwc_sh SH251972 -14.2000 101.100 10 -1 -14.2000 101.000 990 -14.2000 101.000 TC 45 990 -14.2011 101.082 1 10 -14.2000 101.100 TC 45 990 10 259
1972080S10105 1972 25 SI WA BELINDA 1972-03-22 09:00:00 TS -14.2954 100.526 988 bom main 984 984 P_____O__PP_P_ SH251972 -14.2926 100.542 7 -1 -14.3000 100.500 988 -14.2999 100.500 TC 47 988 -14.2945 100.529 1 7 -14.2926 100.542 TC 50 988 11 259
1972080S10105 1972 25 SI WA BELINDA 1972-03-22 12:00:00 TS -14.4000 100.000 986 bom main 1023 1023 O_____O__OO_O_ jtwc_sh SH251972 -14.4000 100.000 5 -1 -14.4000 100.000 986 -14.4000 100.000 TC 50 986 -14.4000 100.000 1 5 -14.4000 100.000 TC 55 986 10 257
1972080S10105 1972 25 SI WA BELINDA 1972-03-22 15:00:00 TS -14.5219 99.5408 984 bom main 1063 1063 P_____O__PP_P_ SH251972 -14.5423 99.5700 5 -1 -14.5000 99.5000 984 -14.4851 99.4625 TC 52 984 -14.5190 99.5726 1 6 -14.5423 99.5700 TC 57 984 9 253
1972080S10105 1972 25 SI WA BELINDA 1972-03-22 18:00:00 TS -14.6591 99.1304 982 bom main 1107 1107 O_____O__OP_O_ jtwc_sh SH251972 -14.7000 99.2000 5 -1 -14.6000 99.0000 982 -14.6000 99.0000 TC 55 982 -14.6546 99.1823 1 7 -14.7000 99.2000 TC 60 982 8 248
1972080S10105 1972 25 SI WA BELINDA 1972-03-22 21:00:00 TS -14.8146 98.8084 981 bom main 1136 1136 P_____O__PP_P_ SH251972 -14.8349 98.8349 7 -1 -14.8000 98.8000 981 -14.7698 98.7199 TC 57 981 -14.8129 98.8257 1 8 -14.8349 98.8349 TC 60 981 7 241
1972080S10105 1972 25 SI WA BELINDA 1972-03-23 00:00:00 TS -15.0000 98.5000 980 bom main 1174 1174 O_____O__OO_O_ jtwc_sh SH251972 -15.0000 98.5000 10 -1 -15.0000 98.5000 980 4 -15.0000 98.5000 TC 60 980 -15.0000 98.5000 1 10 -15.0000 98.5000 TC 60 980 7 233
1972080S10105 1972 25 SI WA BELINDA 1972-03-23 03:00:00 TS -15.2556 98.1932 981 bom main 1220 1220 P_____O__PP_P_ SH251972 -15.2350 98.1850 10 -1 -15.3000 98.2000 981 -15.3000 98.2001 TC 57 981 -15.2290 98.2043 1 8 -15.2350 98.1850 TC 60 981 8 227
1972080S10105 1972 25 SI WA BELINDA 1972-03-23 06:00:00 TS -15.5308 97.9058 982 bom main 1258 1258 O_____O__OP_O_ jtwc_sh SH251972 -15.5000 97.9000 10 -1 -15.6000 97.9000 982 -15.6000 97.9000 TC 55 982 -15.4845 97.9349 1 7 -15.5000 97.9000 TC 60 982 7 225
1972080S10105 1972 25 SI WA BELINDA 1972-03-23 09:00:00 TS -15.7725 97.6621 983 bom main 1297 1297 P_____O__PP_P_ SH251972 -15.7574 97.6499 7 -1 -15.8000 97.7000 983 -15.8149 97.6499 TC 55 983 -15.7478 97.6730 1 6 -15.7574 97.6499 TC 57 983 7 226
1972080S10105 1972 25 SI WA BELINDA 1972-03-23 12:00:00 TS -16.0000 97.4000 984 bom main 1335 1335 O_____O__OO_O_ jtwc_sh SH251972 -16.0000 97.4000 5 -1 -16.0000 97.4000 984 -16.0000 97.4000 TC 55 984 -16.0000 97.4000 1 5 -16.0000 97.4000 TC 55 984 7 231
1972080S10105 1972 25 SI WA BELINDA 1972-03-23 15:00:00 TS -16.2040 97.1121 985 bom main 1373 1373 P_____O__PP_P_ SH251972 -16.2075 97.1149 5 -1 -16.2000 97.1000 985 -16.2000 97.1149 TC 52 985 -16.2018 97.1131 1 5 -16.2075 97.1149 TC 52 985 7 235
1972080S10105 1972 25 SI WA BELINDA 1972-03-23 18:00:00 TS -16.3987 96.8015 987 bom main 1411 1411 O_____O__OP_O_ jtwc_sh SH251972 -16.4000 96.8000 5 -1 -16.4000 96.8000 987 -16.4000 96.8000 TC 50 987 -16.3919 96.8091 1 5 -16.4000 96.8000 TC 50 987 7 237
1972080S10105 1972 25 SI WA BELINDA 1972-03-23 21:00:00 TS -16.5926 96.4775 989 bom main 1449 1449 P_____O__PP_P_ SH251972 -16.5924 96.4724 5 -1 -16.6000 96.5000 989 -16.5924 96.4724 TC 47 988 -16.5861 96.4755 1 5 -16.5924 96.4724 TC 47 988 8 239
1972080S10105 1972 25 SI WA BELINDA 1972-03-24 00:00:00 TS -16.8000 96.1000 990 bom main 1494 1494 O_____O__OO_O_ jtwc_sh SH251972 -16.8000 96.1000 5 -1 -16.8000 96.1000 990 -16.8000 96.1000 TC 45 990 -16.8000 96.1000 1 5 -16.8000 96.1000 TC 45 990 9 240
1972080S10105 1972 25 SI WA BELINDA 1972-03-24 03:00:00 TS -17.0322 95.6750 991 bom main 1539 1539 P_____O__PP_P_ SH251972 -17.0349 95.6724 7 -1 -17.0000 95.7000 991 -17.0349 95.6724 TC 45 991 -17.0537 95.6602 1 -17.0349 95.6724 TC 45 991 10 240
1972080S10105 1972 25 SI WA BELINDA 1972-03-24 06:00:00 TS -17.3046 95.1967 992 bom main 1600 1600 O_____O__OP_O_ jtwc_sh SH251972 -17.3000 95.2000 10 -1 -17.3000 95.2000 992 -17.3000 95.2000 TC 45 992 -17.3278 95.1802 1 -17.3000 95.2000 TC 45 992 11 239
1972080S10105 1972 25 SI WA BELINDA 1972-03-24 09:00:00 TS -17.5972 94.6987 993 bom main 1661 1661 P_____O__PP_P_ SH251972 -17.5925 94.7000 12 -1 -17.6000 94.7000 993 -17.5924 94.7074 TC 42 992 -17.6130 94.6851 1 -17.5925 94.7000 TC 42 992 11 238
1972080S10105 1972 25 SI WA BELINDA 1972-03-24 12:00:00 TS -17.9000 94.2000 993 bom main 1723 1723 O_____O__OO_O_ jtwc_sh SH251972 -17.9000 94.2000 15 -1 -17.9000 94.2000 993 -17.9000 94.2000 TC 40 993 -17.9000 94.2000 1 -17.9000 94.2000 TC 40 993 11 237
1972080S10105 1972 25 SI WA BELINDA 1972-03-24 15:00:00 TS -18.2055 93.7205 994 bom main 1784 1784 P_____O__PP_P_ SH251972 -18.2074 93.7349 17 -1 -18.2000 93.7000 994 -18.2075 93.6775 TC 40 993 -18.2033 93.7405 1 -18.2074 93.7349 TC 40 993 11 236
1972080S10105 1972 25 SI WA BELINDA 1972-03-24 18:00:00 TS -18.5004 93.2663 994 bom main 1837 1837 O_____O__OP_O_ jtwc_sh SH251972 -18.5000 93.3000 20 -1 -18.5000 93.2000 994 -18.5000 93.2000 TC 40 994 -18.5023 93.2979 1 -18.5000 93.3000 TC 40 994 10 235
1972080S10105 1972 25 SI WA BELINDA 1972-03-24 21:00:00 TS -18.7825 92.8594 994 bom main 1891 1891 P_____O__PP_P_ SH251972 -18.7799 92.8850 22 -1 -18.8000 92.8000 994 -18.7798 92.8199 TC 40 994 -18.7752 92.8813 1 -18.7799 92.8850 TC 40 994 9 235
1972080S10105 1972 25 SI WA BELINDA 1972-03-25 00:00:00 TS -19.0000 92.5000 995 bom main 1937 1937 O_____O__OO_O_ jtwc_sh SH251972 -19.0000 92.5000 25 -1 -19.0000 92.5000 995 -19.0000 92.5000 TC 40 995 -19.0000 92.5000 1 25 -19.0000 92.5000 TC 40 995 8 243
1972080S10105 1972 25 SI WA BELINDA 1972-03-25 03:00:00 TS -19.1233 92.1536 995 bom main 1968 1968 P_____O__PP_P_ SH251972 -19.1225 92.1273 25 -1 -19.1000 92.2000 995 -19.1224 92.1923 TC 40 995 -19.1500 92.1471 1 -19.1225 92.1273 TC 40 995 7 252
1972080S10105 1972 25 SI WA BELINDA 1972-03-25 06:00:00 TS -19.2087 91.8386 995 bom main 2006 2006 O_____O__OP_O_ jtwc_sh SH251972 -19.2000 91.8000 25 -1 -19.2000 91.9000 995 -19.2000 91.9000 TC 40 995 -19.2521 91.8317 1 -19.2000 91.8000 TC 40 995 6 252
1972080S10105 1972 25 SI WA BELINDA 1972-03-25 09:00:00 TS -19.3047 91.5576 996 bom main 2029 2029 P_____O__PP_P_ SH251972 -19.2999 91.5350 27 -1 -19.3000 91.6000 996 -19.3000 91.5902 TC 37 995 -19.3282 91.5504 1 -19.2999 91.5350 TC 37 995 5 249
1972080S10105 1972 25 SI WA BELINDA 1972-03-25 12:00:00 TS -19.4000 91.3000 996 bom main 2060 2060 O_____O__OO_O_ jtwc_sh SH251972 -19.4000 91.3000 30 -1 -19.4000 91.3000 996 -19.4000 91.3000 TC 35 996 -19.4000 91.3000 1 -19.4000 91.3000 TC 35 996 5 249
1972080S10105 1972 25 SI WA BELINDA 1972-03-25 15:00:00 TS -19.4964 91.0301 main 2092 2092 P_____P__PP_P_ SH251972 -19.5000 91.0350 30 -1 -19.5000 91.0161 996 -19.4906 91.0250 TC 35 996 -19.4877 91.0347 1 -19.5000 91.0350 TC 35 996 5 248
1972080S10105 1972 25 SI WA BELINDA 1972-03-25 18:00:00 TS -19.5931 90.7936 main 2115 2115 O_____P__PP_O_ jtwc_sh SH251972 -19.6000 90.8000 30 -1 -19.6000 90.7715 997 -19.5812 90.7875 TC 35 997 -19.5774 90.8025 1 -19.6000 90.8000 TC 35 997 4 244
1972080S10105 1972 25 SI WA BELINDA 1972-03-25 21:00:00 TS -19.6895 90.6090 main 2138 2138 P_____P__PP_P_ SH251972 -19.6925 90.6125 30 -1 -19.7000 90.5911 997 -19.6812 90.6063 TC 35 997 -19.6784 90.6191 1 -19.6925 90.6125 TC 35 997 3 233
1972080S10105 1972 25 SI WA BELINDA 1972-03-26 00:00:00 TS -19.8000 90.5000 998 bom main 2153 2153 O_____O__OO_O_ jtwc_sh SH251972 -19.8000 90.5000 30 -1 -19.8000 90.5000 998 -19.8000 90.5000 TC 35 998 -19.8000 90.5000 1 30 -19.8000 90.5000 TC 35 998 3 208
1972080S10105 1972 25 SI WA BELINDA 1972-03-26 03:00:00 TS -19.9339 90.4717 998 bom main 2160 2160 P_____O__PP_P_ SH251972 -19.9350 90.4700 30 -1 -19.9000 90.5000 998 -19.9369 90.4723 TC 32 998 -19.9614 90.4480 1 26 -19.9350 90.4700 TC 35 3 0
1972080S10105 1972 25 SI WA BELINDA 1972-03-26 06:00:00 TS -20.1071 90.4933 999 bom main 2175 2175 O_____O__OP_O_ jtwc_sh SH251972 -20.1000 90.5000 30 -1 -20.1000 90.5000 999 -20.1000 90.5000 TC 30 999 -20.1423 90.4598 1 22 -20.1000 90.5000 TC 35 4 171
1972080S10105 1972 25 SI WA BELINDA 1972-03-26 09:00:00 TS -20.3045 90.5261 999 bom main 2190 2189 P_____O__PP_P_ SH251972 -20.3000 90.5350 30 -1 -20.3000 90.5000 999 -20.3000 90.5350 TC 30 999 -20.3271 90.5168 1 18 -20.3000 90.5350 TC 32 4 166
1972080S10105 1972 25 SI WA BELINDA 1972-03-26 12:00:00 TS -20.5000 90.6000 999 bom main 2197 2197 O_____O__OO_O_ jtwc_sh SH251972 -20.5000 90.6000 30 -1 -20.5000 90.6000 999 -20.5000 90.6000 TC 30 999 -20.5000 90.6000 1 15 -20.5000 90.6000 TC 30 4 156
1972080S10105 1972 25 SI WA BELINDA 1972-03-26 15:00:00 TS -20.6673 90.6941 1000 bom main 2204 2197 P_____O__PP_P_ SH251972 -20.6650 90.6925 30 -1 -20.7000 90.7000 1000 -20.6650 90.6925 TC 30 999 -20.6435 90.6946 1 -20.6650 90.6925 TC 30 4 147
1972080S10105 1972 25 SI WA BELINDA 1972-03-26 18:00:00 TS -20.7954 90.8012 1000 bom main 2204 2197 O_____O__OP_O_ jtwc_sh SH251972 -20.8000 90.8000 30 -1 -20.8000 90.8000 1000 -20.8000 90.8000 TC 30 1000 -20.7726 90.8073 1 -20.8000 90.8000 TC 30 3 139
1972080S10105 1972 25 SI WA BELINDA 1972-03-26 21:00:00 TS -20.9035 90.9119 1000 bom main 2205 2197 P_____O__PP_P_ SH251972 -20.9075 90.9150 30 -1 -20.9000 90.9000 1000 -20.9082 90.9098 TC 30 1000 -20.8904 90.9164 1 -20.9075 90.9150 TC 30 3 138
1972080S10105 1972 25 SI WA BELINDA 1972-03-27 00:00:00 TS -21.0000 91.0000 1000 bom main 2205 2205 O_____O__OO_O_ jtwc_sh SH251972 -21.0000 91.0000 30 -1 -21.0000 91.0000 1000 -21.0000 91.0000 TC 30 1000 -21.0000 91.0000 1 -21.0000 91.0000 TC 30 2 152
1972080S10105 1972 25 SI WA BELINDA 1972-03-27 03:00:00 TS -21.1012 91.0260 main 2213 2213 P_____P__PP_P_ SH251972 -21.1000 91.0150 27 -1 -21.1000 91.0447 1000 -21.1000 91.0376 TC 28 1000 -21.1072 91.0289 1 -21.1000 91.0150 TC 27 2 176
1972080S10105 1972 25 SI WA BELINDA 1972-03-27 06:00:00 TS -21.2012 91.0185 main 2220 2220 O_____P__PP_O_ jtwc_sh SH251972 -21.2000 91.0000 25 -1 -21.2000 91.0429 1001 -21.2000 91.0376 TC 27 1001 -21.2075 91.0301 1 -21.2000 91.0000 TC 25 2 0
1972080S10105 1972 25 SI WA BELINDA 1972-03-27 09:00:00 TS -21.3007 91.0091 main 2228 2228 P_____P__PP_P_ SH251972 -21.3000 91.0000 25 -1 -21.3000 91.0197 1001 -21.3000 91.0188 TC 26 1001 -21.3040 91.0163 1 -21.3000 91.0000 TC 25 2 0
1972080S10105 1972 25 SI WA BELINDA 1972-03-27 12:00:00 TS -21.4000 91.0000 1002 bom main 2236 2236 O_____O__OO_O_ jtwc_sh SH251972 -21.4000 91.0000 25 -1 -21.4000 91.0000 1002 -21.4000 91.0000 TC 25 1002 -21.4000 91.0000 1 -21.4000 91.0000 TC 25 2 0
1972080S10105 1972 25 SI WA BELINDA 1972-03-27 15:00:00 TS -21.4986 91.0054 1003 bom main 2244 2244 P_____O__PP_P_ SH251972 -21.5000 91.0000 25 -1 -21.5000 91.0000 1003 -21.5000 91.0000 TC 25 1002 -21.4918 91.0323 1 -21.5000 91.0000 TC 25 2 177
1972080S10105 1972 25 SI WA BELINDA 1972-03-27 18:00:00 TS -21.5975 91.0099 1003 bom main 2252 2252 O_____O__OP_O_ jtwc_sh SH251972 -21.6000 91.0000 25 -1 -21.6000 91.0000 1003 -21.6000 91.0000 TC 25 1003 -21.5848 91.0597 1 -21.6000 91.0000 TC 25 2 0
1972080S10105 1972 25 SI WA BELINDA 1972-03-27 21:00:00 TS -21.6932 91.0224 1004 bom main 2260 2260 P_____O__PP_P_ SH251972 -21.6925 91.0224 25 -1 -21.7000 91.0000 1004 -21.6963 91.0096 TC 22 1003 -21.6855 91.0572 1 -21.6925 91.0224 TC 25 2 0
1972080S10105 1972 25 SI WA BELINDA 1972-03-28 00:00:00 TS -21.8000 91.0000 1004 bom main 2268 2268 O_____O__OO_O_ jtwc_sh SH251972 -21.8000 91.0000 25 -1 -21.8000 91.0000 1004 -21.8000 91.0000 TC 20 1004 -21.8000 91.0000 1 -21.8000 91.0000 TC 25 3 206
1972080S10105 1972 25 SI WA BELINDA 1972-03-28 03:00:00 TS -21.9334 90.8940 main 2283 2283 P_____P__PP_P_ SH251972 -21.9425 90.8875 22 -1 -21.9126 90.9390 -21.9247 90.9287 TC -21.9359 90.8335 1 -21.9425 90.8875 TC 22 4 222
1972080S10105 1972 25 SI WA BELINDA 1972-03-28 06:00:00 TS -22.0820 90.7246 main 2314 2314 O_____P__PP_O_ jtwc_sh SH251972 -22.1000 90.7000 20 -1 -22.0402 90.8214 -22.0663 90.8105 TC -22.0854 90.6155 1 -22.1000 90.7000 TC 20 5 230
1972080S10105 1972 25 SI WA BELINDA 1972-03-28 09:00:00 TS -22.2325 90.5079 main 2336 2336 P_____P__PP_P_ SH251972 -22.2501 90.4426 20 -1 -22.1828 90.6679 -22.2196 90.6619 TC -22.2422 90.3897 1 -22.2501 90.4426 TC 20 5 232
1972080S10105 1972 25 SI WA BELINDA 1972-03-28 12:00:00 TS -22.3867 90.2998 main 2363 2363 O_____P__PO_O_ jtwc_sh SH251972 -22.4000 90.2000 20 -1 -22.3403 90.4992 -22.3797 90.4994 TC -22.4000 90.2000 1 -22.4000 90.2000 TC 20 5 226
1972080S10105 1972 25 SI WA BELINDA 1972-03-28 15:00:00 TS -22.5430 90.1572 main 2370 2367 P_____P__PP_P_ SH251972 -22.5499 90.0625 17 -1 -22.5126 90.3362 -22.5414 90.3398 TC -22.5541 90.0797 1 -22.5499 90.0625 TC 17 4 213
1972080S10105 1972 25 SI WA BELINDA 1972-03-28 18:00:00 TS -22.7007 90.0829 1005 bom main 2375 2372 O_____O__OP_O_ jtwc_sh SH251972 -22.7000 90.0000 15 -1 -22.7000 90.2000 1005 -22.7000 90.2000 TC 20 1005 -22.7047 90.0196 1 -22.7000 90.0000 TC 15 3 198
1972080S10105 1972 25 SI WA BELINDA 1972-03-28 21:00:00 TS -22.8629 90.0447 1005 bom main 2379 2377 P_____O__PP_P_ SH251972 -22.8500 89.9875 15 -1 -22.9000 90.1000 1005 -22.8500 90.0975 TC 17 1005 -22.8529 89.9997 1 -22.8500 89.9875 TC 15 3 194
1972080S10105 1972 25 SI WA BELINDA 1972-03-29 00:00:00 TS -23.0000 90.0000 1006 bom main 2377 2374 O_____O__OO_O_ jtwc_sh SH251972 -23.0000 90.0000 15 -1 -23.0000 90.0000 1006 -23.0000 90.0000 TC 15 1006 -23.0000 90.0000 1 -23.0000 90.0000 TC 15 3 203
1972080S10105 1972 25 SI MM BELINDA 1972-03-29 03:00:00 TS -23.1750 89.9004 1006 bom main 2382 2382 ______O__P____ SH251972 -1 -23.2000 89.9000 1006 -23.1500 89.9009 TC 15 1006 1 TC 4 211
1972080S10105 1972 25 SI MM BELINDA 1972-03-29 06:00:00 TS -23.3000 89.8000 1007 bom main 2389 ______O__O____ -1 -23.3000 89.8000 1007 -23.3000 89.8000 TC 15 1007 1 3 215

About IBTrACS Database

This database is a web-friendly format of International Best Track Archive for Climate Stewardship (IBTrACS), a global best track data archive curated by NOAA dating back to 1842.

Updated: 2021-12-06